METAR

METAR LDZA 230530Z VRB01KT 8000 -RA FEW020 OVC033 18/16 Q1011 NOSIG =
METAR LDSP 230530Z 04004KT 360V080 CAVOK 24/20 Q1008 TEMPO 25010KT TSRA FEW025CB BKN050=
METAR LDDU 230530Z 06004KT 020V100 CAVOK 23/19 Q1008 NOSIG =
METAR LDZD 230530Z 07003KT 030V110 9999 FEW030 SCT070 22/17 Q1008 TEMPO TS FEW030CB SCT060 =
METAR LDPL 230530Z 03006KT CAVOK 24/16 Q1009 NOSIG=
METAR LDOS 230530Z 29007KT 9999 SCT013 BKN030 19/18 Q1009=
METAR LDRI 230530Z 01008KT 300V110 9999 FEW013 SCT047 25/12 Q1009=

TAF

TAF LDZA 230525Z 2306/2406 32007KT 9999 BKN035
                 TX23/2316Z TN16/2403Z
           TEMPO 2306/2312 RA BKN010 BKN030
    PROB40 TEMPO 2306/2316 SHRA SCT030TCU BKN035
           BECMG 2307/2309 03012KT
    PROB30 TEMPO 2311/2316 TSRA FEW025CB BKN030=
TAF LDSP 230525Z 2306/2406 23008KT 9999 SCT040
                 TX29/2314Z TN21/2403Z
    PROB40 TEMPO 2306/2315 33015G25KT TSRA FEW030CB BKN035
           BECMG 2311/2313 33012KT
           BECMG 2318/2320 05010KT
           TEMPO 2321/2406 03020G30KT=
TAF LDDU 230525Z 2306/2406 08006KT 9999 SCT040
                 TX28/2313Z TN23/2403Z
           BECMG 2307/2309 30008KT
    PROB40 TEMPO 2309/2319 VRB15G25KT TSRA SCT025CB BKN030
           BECMG 2320/2322 03020G30KT=
TAF LDZD 230525Z 2306/2406 07006KT 9999 SCT035
                 TX27/2315Z TN20/2403Z
    PROB40 TEMPO 2306/2312 30015G25KT TSRA FEW030CB BKN035
           BECMG 2310/2312 32012KT
           BECMG 2315/2317 04012KT
           TEMPO 2318/2406 04018G30KT=
TAF LDPL 230525Z 2306/2406 06010KT 9999 SCT035
                 TX27/2314Z TN18/2403Z
    PROB30 TEMPO 2318/2322 06015G25KT=
TAF LDOS 230525Z 2306/2406 34008KT 9999 SCT015 BKN030
                 TX23/2314Z TN16/2403Z
           TEMPO 2306/2320 SHRA SCT025TCU BKN030
    PROB30 TEMPO 2309/2319 TSRA FEW020CB BKN025=
TAF LDRI 230525Z 2306/2406 04010KT 9999 SCT035
                 TX25/2315Z TN19/2403Z
           TEMPO 2306/2314 32010KT
    PROB30 TEMPO 2310/2314 SHRA FEW030TCU SCT035
           TEMPO 2314/2406 VRB10KT
    PROB30 TEMPO 2314/2403 04020G30KT=
TAF AMD LDLO 221903Z 2219/2312 CNL=

SIGMET

LDZO SIGMET 3 VALID 230500/230700 LDZA-
LDZO ZAGREB FIR EMBD TS OBS WI N4317 E01451 - N4408 E01347 - N4408
E01503 - N4310 E01620 - N4238 E01552 - N4317 E01451 TOP FL400 MOV SE
10KT NC=

AIRMET

LDZO AIRMET 3 VALID 230414/230800 LDZA-
LDZO ZAGREB FIR MT OBSC OBS WI N4636 E01631 - N4535 E01806 - N4507
E01741 - N4408 E01543 - N4439 E01455 - N4458 E01457 - N4536 E01425 -
N4636 E01631 ABV 2000FT STNR NC=

Napomena

Ukoliko se brzina i smjer vjetra ne mogu odrediti zbog privremenog kvara sustava/indikatora,
informacija o vjetru u METAR izvješću bit će prikazana kao "/////KT".

 

Disclaimer

 

In case of temporary system/sensor failure, wind speed and direction data will be represented as "/////KT" in METAR report.

 

         

      Politika MET podataka